sensor_id;sensor_type;location;lat;lon;timestamp;pressure;altitude;pressure_sealevel;temperature;humidity
7748;BME280;3918;42.564;23.164;2023-09-30T04:02:42;-11650.84;;;-142.29;100.00
7748;BME280;3918;42.564;23.164;2023-09-30T04:05:14;-11650.84;;;-142.29;100.00
7748;BME280;3918;42.564;23.164;2023-09-30T04:07:42;-11650.84;;;-142.29;100.00
7748;BME280;3918;42.564;23.164;2023-09-30T04:10:09;-11650.84;;;-142.29;100.00
7748;BME280;3918;42.564;23.164;2023-09-30T04:12:36;-11650.84;;;-142.29;100.00
7748;BME280;3918;42.564;23.164;2023-09-30T04:15:04;-11650.84;;;-142.29;100.00
7748;BME280;3918;42.564;23.164;2023-09-30T04:17:30;-11650.84;;;-142.29;100.00
7748;BME280;3918;42.564;23.164;2023-09-30T04:19:59;-11650.84;;;-142.29;100.00
7748;BME280;3918;42.564;23.164;2023-09-30T04:22:26;-11650.84;;;-142.29;100.00
7748;BME280;3918;42.564;23.164;2023-09-30T04:24:55;-11650.84;;;-142.29;100.00
7748;BME280;3918;42.564;23.164;2023-09-30T04:27:21;-11650.84;;;-142.29;100.00
7748;BME280;3918;42.564;23.164;2023-09-30T04:29:48;-11650.84;;;-142.29;100.00
7748;BME280;3918;42.564;23.164;2023-09-30T04:32:15;-11650.84;;;-142.29;100.00
7748;BME280;3918;42.564;23.164;2023-09-30T04:34:42;-11650.84;;;-142.29;100.00
7748;BME280;3918;42.564;23.164;2023-09-30T04:37:12;-11650.84;;;-142.29;100.00
7748;BME280;3918;42.564;23.164;2023-09-30T04:39:39;-11650.84;;;-142.29;100.00
7748;BME280;3918;42.564;23.164;2023-09-30T04:42:05;-11650.84;;;-142.29;100.00
7748;BME280;3918;42.564;23.164;2023-09-30T04:44:36;-11650.84;;;-142.29;100.00
7748;BME280;3918;42.564;23.164;2023-09-30T04:47:04;-11650.84;;;-142.29;100.00
7748;BME280;3918;42.564;23.164;2023-09-30T04:49:31;-11650.84;;;-142.29;100.00
7748;BME280;3918;42.564;23.164;2023-09-30T04:51:57;-11650.84;;;-142.29;100.00
7748;BME280;3918;42.564;23.164;2023-09-30T04:54:25;-11650.84;;;-142.29;100.00
7748;BME280;3918;42.564;23.164;2023-09-30T04:56:54;-11650.84;;;-142.29;100.00
7748;BME280;3918;42.564;23.164;2023-09-30T04:59:21;-11650.84;;;-142.29;100.00
7748;BME280;3918;42.564;23.164;2023-09-30T05:01:50;-11650.84;;;-142.29;100.00
7748;BME280;3918;42.564;23.164;2023-09-30T05:04:17;-11650.84;;;-142.29;100.00
7748;BME280;3918;42.564;23.164;2023-09-30T05:06:43;-11650.84;;;-142.29;100.00
7748;BME280;3918;42.564;23.164;2023-09-30T05:09:10;-11650.84;;;-142.29;100.00
7748;BME280;3918;42.564;23.164;2023-09-30T05:11:39;-11650.84;;;-142.29;100.00
7748;BME280;3918;42.564;23.164;2023-09-30T05:14:05;-11650.84;;;-142.29;100.00
7748;BME280;3918;42.564;23.164;2023-09-30T05:16:32;-11650.84;;;-142.29;87.20
7748;BME280;3918;42.564;23.164;2023-09-30T05:18:59;-11650.84;;;-142.29;75.92
7748;BME280;3918;42.564;23.164;2023-09-30T05:21:26;-11650.84;;;-142.29;70.67
7748;BME280;3918;42.564;23.164;2023-09-30T05:23:53;-11650.84;;;-142.29;65.99
7748;BME280;3918;42.564;23.164;2023-09-30T05:26:19;-11650.84;;;-142.29;63.72
7748;BME280;3918;42.564;23.164;2023-09-30T05:28:48;-11650.84;;;-142.29;60.12
7748;BME280;3918;42.564;23.164;2023-09-30T05:31:14;-11650.84;;;-142.29;58.62
7748;BME280;3918;42.564;23.164;2023-09-30T05:33:41;-11650.84;;;-142.29;57.07
7748;BME280;3918;42.564;23.164;2023-09-30T05:36:08;-11650.84;;;-142.29;57.28
7748;BME280;3918;42.564;23.164;2023-09-30T05:38:35;-11650.84;;;-142.29;57.47
7748;BME280;3918;42.564;23.164;2023-09-30T05:41:01;-11650.84;;;-142.29;56.03
7748;BME280;3918;42.564;23.164;2023-09-30T05:43:29;-11650.84;;;-142.29;53.98
7748;BME280;3918;42.564;23.164;2023-09-30T05:45:57;-11650.84;;;-142.29;51.99
7748;BME280;3918;42.564;23.164;2023-09-30T05:48:24;-11650.84;;;-142.29;49.24
7748;BME280;3918;42.564;23.164;2023-09-30T05:50:51;-11650.84;;;-142.29;48.11
7748;BME280;3918;42.564;23.164;2023-09-30T05:53:17;-11650.84;;;-142.29;48.70
7748;BME280;3918;42.564;23.164;2023-09-30T05:55:46;-11650.84;;;-142.29;46.92
7748;BME280;3918;42.564;23.164;2023-09-30T05:58:13;-11650.84;;;-142.29;46.65
7748;BME280;3918;42.564;23.164;2023-09-30T06:00:41;-11650.84;;;-142.29;46.71
7748;BME280;3918;42.564;23.164;2023-09-30T06:03:09;-11650.84;;;-142.29;45.61
7748;BME280;3918;42.564;23.164;2023-09-30T06:05:39;-11650.84;;;-142.29;45.61
7748;BME280;3918;42.564;23.164;2023-09-30T06:08:08;-11650.84;;;-142.29;44.66
7748;BME280;3918;42.564;23.164;2023-09-30T06:10:36;-11650.84;;;-142.29;44.84
7748;BME280;3918;42.564;23.164;2023-09-30T06:13:04;-11650.84;;;-142.29;44.27
7748;BME280;3918;42.564;23.164;2023-09-30T06:15:31;-11650.84;;;-142.29;43.20
7748;BME280;3918;42.564;23.164;2023-09-30T06:17:58;-11650.84;;;-142.29;41.57
7748;BME280;3918;42.564;23.164;2023-09-30T06:20:26;-11650.84;;;-142.29;41.83
7748;BME280;3918;42.564;23.164;2023-09-30T06:22:56;-11650.84;;;-142.29;41.50
7748;BME280;3918;42.564;23.164;2023-09-30T06:25:23;-11650.84;;;-142.29;42.56
7748;BME280;3918;42.564;23.164;2023-09-30T06:27:50;-11650.84;;;-142.29;41.91
7748;BME280;3918;42.564;23.164;2023-09-30T06:30:17;-11650.84;;;-142.29;43.12
7748;BME280;3918;42.564;23.164;2023-09-30T06:32:45;-11650.84;;;-142.29;42.31
7748;BME280;3918;42.564;23.164;2023-09-30T06:35:12;-11650.84;;;-142.29;42.78
7748;BME280;3918;42.564;23.164;2023-09-30T06:37:41;-11650.84;;;-142.29;43.23
7748;BME280;3918;42.564;23.164;2023-09-30T06:40:09;-11650.84;;;-142.29;43.03
7748;BME280;3918;42.564;23.164;2023-09-30T06:42:38;-11650.84;;;-142.29;42.59
7748;BME280;3918;42.564;23.164;2023-09-30T06:45:06;-11650.84;;;-142.29;44.42
7748;BME280;3918;42.564;23.164;2023-09-30T06:47:33;-11650.84;;;-142.29;45.27
7748;BME280;3918;42.564;23.164;2023-09-30T06:50:00;-11650.84;;;-142.29;44.32
7748;BME280;3918;42.564;23.164;2023-09-30T06:52:33;-11650.84;;;-142.29;44.92
7748;BME280;3918;42.564;23.164;2023-09-30T06:55:01;-11650.84;;;-142.29;46.27
7748;BME280;3918;42.564;23.164;2023-09-30T06:57:30;-11650.84;;;-142.29;46.76
7748;BME280;3918;42.564;23.164;2023-09-30T06:59:57;-11650.84;;;-142.29;48.82
7748;BME280;3918;42.564;23.164;2023-09-30T07:02:24;-11650.84;;;-142.29;46.38
7748;BME280;3918;42.564;23.164;2023-09-30T07:04:51;-11650.84;;;-142.29;44.67
7748;BME280;3918;42.564;23.164;2023-09-30T07:07:18;-11650.84;;;-142.29;45.09
7748;BME280;3918;42.564;23.164;2023-09-30T07:09:45;-11650.84;;;-142.29;45.02
7748;BME280;3918;42.564;23.164;2023-09-30T07:12:13;-11650.84;;;-142.29;45.22
7748;BME280;3918;42.564;23.164;2023-09-30T07:14:40;-11650.84;;;-142.29;45.00
7748;BME280;3918;42.564;23.164;2023-09-30T07:17:06;-11650.84;;;-142.29;44.83
7748;BME280;3918;42.564;23.164;2023-09-30T07:19:33;-11650.84;;;-142.29;45.26
7748;BME280;3918;42.564;23.164;2023-09-30T07:22:00;-11650.84;;;-142.29;44.76
7748;BME280;3918;42.564;23.164;2023-09-30T07:24:28;-11650.84;;;-142.29;46.08
7748;BME280;3918;42.564;23.164;2023-09-30T07:26:54;-11650.84;;;-142.29;46.25
7748;BME280;3918;42.564;23.164;2023-09-30T07:29:23;-11650.84;;;-142.29;46.25
7748;BME280;3918;42.564;23.164;2023-09-30T07:31:49;-11650.84;;;-142.29;44.90
7748;BME280;3918;42.564;23.164;2023-09-30T07:34:16;-11650.84;;;-142.29;44.08
7748;BME280;3918;42.564;23.164;2023-09-30T07:36:43;-11650.84;;;-142.29;44.20
7748;BME280;3918;42.564;23.164;2023-09-30T07:39:10;-11650.84;;;-142.29;45.83
7748;BME280;3918;42.564;23.164;2023-09-30T07:41:36;-11650.84;;;-142.29;44.02
7748;BME280;3918;42.564;23.164;2023-09-30T07:44:04;-11650.84;;;-142.29;45.57
7748;BME280;3918;42.564;23.164;2023-09-30T07:46:32;-11650.84;;;-142.29;45.35
7748;BME280;3918;42.564;23.164;2023-09-30T07:48:59;-11650.84;;;-142.29;45.77
7748;BME280;3918;42.564;23.164;2023-09-30T07:51:26;-11650.84;;;-142.29;44.54
7748;BME280;3918;42.564;23.164;2023-09-30T07:53:53;-11650.84;;;-142.29;46.11
7748;BME280;3918;42.564;23.164;2023-09-30T07:56:18;-11650.84;;;-142.29;45.81
7748;BME280;3918;42.564;23.164;2023-09-30T07:58:45;-11650.84;;;-142.29;47.66
7748;BME280;3918;42.564;23.164;2023-09-30T08:01:12;-11650.84;;;-142.29;46.63
7748;BME280;3918;42.564;23.164;2023-09-30T08:03:40;-11650.84;;;-142.29;45.89
7748;BME280;3918;42.564;23.164;2023-09-30T08:06:07;-11650.84;;;-142.29;45.75
7748;BME280;3918;42.564;23.164;2023-09-30T08:08:35;-11650.84;;;-142.29;46.33
7748;BME280;3918;42.564;23.164;2023-09-30T08:11:02;-11650.84;;;-142.29;45.86
7748;BME280;3918;42.564;23.164;2023-09-30T08:13:30;-11650.84;;;-142.29;45.46
7748;BME280;3918;42.564;23.164;2023-09-30T08:15:57;-11650.84;;;-142.29;45.34
7748;BME280;3918;42.564;23.164;2023-09-30T08:18:24;-11650.84;;;-142.29;44.95
7748;BME280;3918;42.564;23.164;2023-09-30T08:20:53;-11650.84;;;-142.29;45.19
7748;BME280;3918;42.564;23.164;2023-09-30T08:23:20;-11650.84;;;-142.29;44.82
7748;BME280;3918;42.564;23.164;2023-09-30T08:25:47;-11650.84;;;-142.29;44.58
7748;BME280;3918;42.564;23.164;2023-09-30T08:28:14;-11650.84;;;-142.29;45.45
7748;BME280;3918;42.564;23.164;2023-09-30T08:30:41;-11650.84;;;-142.29;44.55
7748;BME280;3918;42.564;23.164;2023-09-30T08:33:08;-11650.84;;;-142.29;44.87
7748;BME280;3918;42.564;23.164;2023-09-30T08:35:35;-11650.84;;;-142.29;45.56
7748;BME280;3918;42.564;23.164;2023-09-30T08:38:05;-11650.84;;;-142.29;46.21
7748;BME280;3918;42.564;23.164;2023-09-30T08:40:31;-11650.84;;;-142.29;46.62
7748;BME280;3918;42.564;23.164;2023-09-30T08:42:58;-11650.84;;;-142.29;47.63
7748;BME280;3918;42.564;23.164;2023-09-30T08:45:27;-11650.84;;;-142.29;48.03
7748;BME280;3918;42.564;23.164;2023-09-30T08:47:54;-11650.84;;;-142.29;47.42
7748;BME280;3918;42.564;23.164;2023-09-30T08:50:22;-11650.84;;;-142.29;47.08
7748;BME280;3918;42.564;23.164;2023-09-30T08:52:48;-11650.84;;;-142.29;47.96
7748;BME280;3918;42.564;23.164;2023-09-30T08:55:17;-11650.84;;;-142.29;48.17
7748;BME280;3918;42.564;23.164;2023-09-30T08:57:44;-11650.84;;;-142.29;47.93
7748;BME280;3918;42.564;23.164;2023-09-30T09:00:12;-11650.84;;;-142.29;47.90
7748;BME280;3918;42.564;23.164;2023-09-30T09:02:39;-11650.84;;;-142.29;47.90
7748;BME280;3918;42.564;23.164;2023-09-30T09:05:07;-11650.84;;;-142.29;48.31
7748;BME280;3918;42.564;23.164;2023-09-30T09:07:34;-11650.84;;;-142.29;48.25
7748;BME280;3918;42.564;23.164;2023-09-30T09:10:05;-11650.84;;;-142.29;48.66
7748;BME280;3918;42.564;23.164;2023-09-30T09:12:36;-11650.84;;;-142.29;48.22
7748;BME280;3918;42.564;23.164;2023-09-30T09:15:05;-11650.84;;;-142.29;46.19
7748;BME280;3918;42.564;23.164;2023-09-30T09:17:43;-11650.84;;;-142.29;48.63
7748;BME280;3918;42.564;23.164;2023-09-30T09:20:11;-11650.84;;;-142.29;46.98
7748;BME280;3918;42.564;23.164;2023-09-30T09:22:41;-11650.84;;;-142.29;47.52
7748;BME280;3918;42.564;23.164;2023-09-30T09:25:08;-11650.84;;;-142.29;48.26
7748;BME280;3918;42.564;23.164;2023-09-30T09:27:37;-11650.84;;;-142.29;46.26
7748;BME280;3918;42.564;23.164;2023-09-30T09:30:19;-11650.84;;;-142.29;47.35
7748;BME280;3918;42.564;23.164;2023-09-30T09:33:02;-11650.84;;;-142.29;47.43
7748;BME280;3918;42.564;23.164;2023-09-30T09:35:31;-11650.84;;;-142.29;47.00
7748;BME280;3918;42.564;23.164;2023-09-30T09:37:59;-11650.84;;;-142.29;46.98
7748;BME280;3918;42.564;23.164;2023-09-30T09:40:27;-11650.84;;;-142.29;46.77
7748;BME280;3918;42.564;23.164;2023-09-30T09:42:56;-11650.84;;;-142.29;46.54
7748;BME280;3918;42.564;23.164;2023-09-30T09:45:25;-11650.84;;;-142.29;46.54
7748;BME280;3918;42.564;23.164;2023-09-30T09:47:52;-11650.84;;;-142.29;47.14
7748;BME280;3918;42.564;23.164;2023-09-30T09:50:20;-11650.84;;;-142.29;46.65
7748;BME280;3918;42.564;23.164;2023-09-30T09:52:48;-11650.84;;;-142.29;45.65
7748;BME280;3918;42.564;23.164;2023-09-30T09:55:16;-11650.84;;;-142.29;46.76
7748;BME280;3918;42.564;23.164;2023-09-30T09:57:45;-11650.84;;;-142.29;46.96
7748;BME280;3918;42.564;23.164;2023-09-30T10:00:15;-11650.84;;;-142.29;46.33
7748;BME280;3918;42.564;23.164;2023-09-30T10:02:44;-11650.84;;;-142.29;46.19
7748;BME280;3918;42.564;23.164;2023-09-30T10:05:12;-11650.84;;;-142.29;46.45
7748;BME280;3918;42.564;23.164;2023-09-30T10:07:44;-11650.84;;;-142.29;46.33
7748;BME280;3918;42.564;23.164;2023-09-30T10:10:14;-11650.84;;;-142.29;45.68
7748;BME280;3918;42.564;23.164;2023-09-30T10:12:42;-11650.84;;;-142.29;46.34
7748;BME280;3918;42.564;23.164;2023-09-30T10:15:40;-11650.84;;;-142.29;46.32
7748;BME280;3918;42.564;23.164;2023-09-30T10:18:08;-11650.84;;;-142.29;46.16
7748;BME280;3918;42.564;23.164;2023-09-30T10:20:37;-11650.84;;;-142.29;46.97
7748;BME280;3918;42.564;23.164;2023-09-30T10:23:24;-11650.84;;;-142.29;45.76
7748;BME280;3918;42.564;23.164;2023-09-30T10:25:53;-11650.84;;;-142.29;47.03
7748;BME280;3918;42.564;23.164;2023-09-30T10:28:33;-11650.84;;;-142.29;46.15
7748;BME280;3918;42.564;23.164;2023-09-30T10:31:12;-11650.84;;;-142.29;46.53
7748;BME280;3918;42.564;23.164;2023-09-30T10:34:17;-11650.84;;;-142.29;46.03
7748;BME280;3918;42.564;23.164;2023-09-30T10:36:44;-11650.84;;;-142.29;46.25
7748;BME280;3918;42.564;23.164;2023-09-30T10:39:13;-11650.84;;;-142.29;46.46
7748;BME280;3918;42.564;23.164;2023-09-30T10:41:49;-11650.84;;;-142.29;46.02
7748;BME280;3918;42.564;23.164;2023-09-30T10:44:35;-11650.84;;;-142.29;46.22
7748;BME280;3918;42.564;23.164;2023-09-30T10:47:35;-11650.84;;;-142.29;46.71
7748;BME280;3918;42.564;23.164;2023-09-30T10:50:03;-11650.84;;;-142.29;45.99
7748;BME280;3918;42.564;23.164;2023-09-30T10:52:31;-11650.84;;;-142.29;46.28
7748;BME280;3918;42.564;23.164;2023-09-30T10:55:03;-11650.84;;;-142.29;46.52
7748;BME280;3918;42.564;23.164;2023-09-30T10:57:32;-11650.84;;;-142.29;46.33
7748;BME280;3918;42.564;23.164;2023-09-30T11:00:09;-11650.84;;;-142.29;46.49
7748;BME280;3918;42.564;23.164;2023-09-30T11:02:49;-11650.84;;;-142.29;46.55
7748;BME280;3918;42.564;23.164;2023-09-30T11:05:17;-11650.84;;;-142.29;46.54
7748;BME280;3918;42.564;23.164;2023-09-30T11:07:48;-11650.84;;;-142.29;46.17
7748;BME280;3918;42.564;23.164;2023-09-30T11:10:17;-11650.84;;;-142.29;45.53
7748;BME280;3918;42.564;23.164;2023-09-30T11:12:58;-11650.84;;;-142.29;46.38
7748;BME280;3918;42.564;23.164;2023-09-30T11:15:25;-11650.84;;;-142.29;44.56
7748;BME280;3918;42.564;23.164;2023-09-30T11:18:12;-11650.84;;;-142.29;44.90
7748;BME280;3918;42.564;23.164;2023-09-30T11:20:39;-11650.84;;;-142.29;44.75
7748;BME280;3918;42.564;23.164;2023-09-30T11:23:06;-11650.84;;;-142.29;44.78
7748;BME280;3918;42.564;23.164;2023-09-30T11:25:35;-11650.84;;;-142.29;44.85
7748;BME280;3918;42.564;23.164;2023-09-30T11:28:13;-11650.84;;;-142.29;44.42
7748;BME280;3918;42.564;23.164;2023-09-30T11:30:53;-11650.84;;;-142.29;44.87
7748;BME280;3918;42.564;23.164;2023-09-30T11:33:22;-11650.84;;;-142.29;44.36
7748;BME280;3918;42.564;23.164;2023-09-30T11:35:57;-11650.84;;;-142.29;44.21
7748;BME280;3918;42.564;23.164;2023-09-30T11:38:24;-11650.84;;;-142.29;44.15
7748;BME280;3918;42.564;23.164;2023-09-30T11:41:00;-11650.84;;;-142.29;44.11
7748;BME280;3918;42.564;23.164;2023-09-30T11:43:29;-11650.84;;;-142.29;43.52
7748;BME280;3918;42.564;23.164;2023-09-30T11:46:06;-11650.84;;;-142.29;43.88
7748;BME280;3918;42.564;23.164;2023-09-30T11:48:36;-11650.84;;;-142.29;43.75
7748;BME280;3918;42.564;23.164;2023-09-30T11:51:03;-11650.84;;;-142.29;43.02
7748;BME280;3918;42.564;23.164;2023-09-30T11:53:30;-11650.84;;;-142.29;43.72
7748;BME280;3918;42.564;23.164;2023-09-30T11:55:57;-11650.84;;;-142.29;43.48
7748;BME280;3918;42.564;23.164;2023-09-30T11:58:26;-11650.84;;;-142.29;43.35
7748;BME280;3918;42.564;23.164;2023-09-30T12:00:57;-11650.84;;;-142.29;43.35
7748;BME280;3918;42.564;23.164;2023-09-30T12:03:25;-11650.84;;;-142.29;43.84
7748;BME280;3918;42.564;23.164;2023-09-30T12:05:54;-11650.84;;;-142.29;43.70
7748;BME280;3918;42.564;23.164;2023-09-30T12:08:22;-11650.84;;;-142.29;43.98
7748;BME280;3918;42.564;23.164;2023-09-30T12:10:48;-11650.84;;;-142.29;43.59
7748;BME280;3918;42.564;23.164;2023-09-30T12:13:15;-11650.84;;;-142.29;43.06
7748;BME280;3918;42.564;23.164;2023-09-30T12:15:42;-11650.84;;;-142.29;43.51
7748;BME280;3918;42.564;23.164;2023-09-30T12:18:09;-11650.84;;;-142.29;44.16
7748;BME280;3918;42.564;23.164;2023-09-30T12:20:38;-11650.84;;;-142.29;43.73
7748;BME280;3918;42.564;23.164;2023-09-30T12:23:08;-11650.84;;;-142.29;44.26
7748;BME280;3918;42.564;23.164;2023-09-30T12:25:34;-11650.84;;;-142.29;43.70
7748;BME280;3918;42.564;23.164;2023-09-30T12:28:03;-11650.84;;;-142.29;44.02
7748;BME280;3918;42.564;23.164;2023-09-30T12:30:30;-11650.84;;;-142.29;43.29
7748;BME280;3918;42.564;23.164;2023-09-30T12:32:58;-11650.84;;;-142.29;43.58
7748;BME280;3918;42.564;23.164;2023-09-30T12:35:24;-11650.84;;;-142.29;43.92
7748;BME280;3918;42.564;23.164;2023-09-30T12:37:51;-11650.84;;;-142.29;43.64
7748;BME280;3918;42.564;23.164;2023-09-30T12:40:19;-11650.84;;;-142.29;43.01
7748;BME280;3918;42.564;23.164;2023-09-30T12:42:46;-11650.84;;;-142.29;44.35
7748;BME280;3918;42.564;23.164;2023-09-30T12:45:14;-11650.84;;;-142.29;44.41
7748;BME280;3918;42.564;23.164;2023-09-30T12:47:42;-11650.84;;;-142.29;44.53
7748;BME280;3918;42.564;23.164;2023-09-30T12:50:10;-11650.84;;;-142.29;43.13
7748;BME280;3918;42.564;23.164;2023-09-30T12:52:36;-11650.84;;;-142.29;43.06
7748;BME280;3918;42.564;23.164;2023-09-30T12:55:04;-11650.84;;;-142.29;43.81
7748;BME280;3918;42.564;23.164;2023-09-30T12:57:32;-11650.84;;;-142.29;44.76
7748;BME280;3918;42.564;23.164;2023-09-30T12:59:59;-11650.84;;;-142.29;44.90
7748;BME280;3918;42.564;23.164;2023-09-30T13:02:26;-11650.84;;;-142.29;45.03
7748;BME280;3918;42.564;23.164;2023-09-30T13:04:53;-11650.84;;;-142.29;45.12
7748;BME280;3918;42.564;23.164;2023-09-30T13:07:20;-11650.84;;;-142.29;45.33
7748;BME280;3918;42.564;23.164;2023-09-30T13:09:46;-11650.84;;;-142.29;44.72
7748;BME280;3918;42.564;23.164;2023-09-30T13:12:13;-11650.84;;;-142.29;45.11
7748;BME280;3918;42.564;23.164;2023-09-30T13:14:43;-11650.84;;;-142.29;44.12
7748;BME280;3918;42.564;23.164;2023-09-30T13:17:10;-11650.84;;;-142.29;44.81
7748;BME280;3918;42.564;23.164;2023-09-30T13:19:39;-11650.84;;;-142.29;44.06
7748;BME280;3918;42.564;23.164;2023-09-30T13:22:07;-11650.84;;;-142.29;45.03
7748;BME280;3918;42.564;23.164;2023-09-30T13:24:34;-11650.84;;;-142.29;44.86
7748;BME280;3918;42.564;23.164;2023-09-30T13:27:05;-11650.84;;;-142.29;44.86
7748;BME280;3918;42.564;23.164;2023-09-30T13:29:31;-11650.84;;;-142.29;45.20
7748;BME280;3918;42.564;23.164;2023-09-30T13:32:00;-11650.84;;;-142.29;45.07
7748;BME280;3918;42.564;23.164;2023-09-30T13:34:26;-11650.84;;;-142.29;44.76
7748;BME280;3918;42.564;23.164;2023-09-30T13:36:54;-11650.84;;;-142.29;44.53
7748;BME280;3918;42.564;23.164;2023-09-30T13:39:21;-11650.84;;;-142.29;45.11
7748;BME280;3918;42.564;23.164;2023-09-30T13:41:49;-11650.84;;;-142.29;44.91
7748;BME280;3918;42.564;23.164;2023-09-30T13:44:17;-11650.84;;;-142.29;45.14
7748;BME280;3918;42.564;23.164;2023-09-30T13:46:43;-11650.84;;;-142.29;44.51
7748;BME280;3918;42.564;23.164;2023-09-30T13:49:15;-11650.84;;;-142.29;43.83
7748;BME280;3918;42.564;23.164;2023-09-30T13:51:43;-11650.84;;;-142.29;43.79
7748;BME280;3918;42.564;23.164;2023-09-30T13:54:09;-11650.84;;;-142.29;44.32
7748;BME280;3918;42.564;23.164;2023-09-30T13:56:36;-11650.84;;;-142.29;44.14
7748;BME280;3918;42.564;23.164;2023-09-30T13:59:03;-11650.84;;;-142.29;45.59
7748;BME280;3918;42.564;23.164;2023-09-30T14:01:31;-11650.84;;;-142.29;45.27
7748;BME280;3918;42.564;23.164;2023-09-30T14:03:58;-11650.84;;;-142.29;45.57
7748;BME280;3918;42.564;23.164;2023-09-30T14:06:29;-11650.84;;;-142.29;44.81
7748;BME280;3918;42.564;23.164;2023-09-30T14:08:56;-11650.84;;;-142.29;45.44
7748;BME280;3918;42.564;23.164;2023-09-30T14:11:22;-11650.84;;;-142.29;45.60
7748;BME280;3918;42.564;23.164;2023-09-30T14:13:49;-11650.84;;;-142.29;45.07
7748;BME280;3918;42.564;23.164;2023-09-30T14:16:16;-11650.84;;;-142.29;45.74
7748;BME280;3918;42.564;23.164;2023-09-30T14:18:42;-11650.84;;;-142.29;45.38
7748;BME280;3918;42.564;23.164;2023-09-30T14:21:10;-11650.84;;;-142.29;45.55
7748;BME280;3918;42.564;23.164;2023-09-30T14:23:38;-11650.84;;;-142.29;45.87
7748;BME280;3918;42.564;23.164;2023-09-30T14:26:05;-11650.84;;;-142.29;45.91
7748;BME280;3918;42.564;23.164;2023-09-30T14:28:36;-11650.84;;;-142.29;45.60
7748;BME280;3918;42.564;23.164;2023-09-30T14:31:03;-11650.84;;;-142.29;45.72
7748;BME280;3918;42.564;23.164;2023-09-30T14:33:30;-11650.84;;;-142.29;45.69
7748;BME280;3918;42.564;23.164;2023-09-30T14:35:57;-11650.84;;;-142.29;45.97
7748;BME280;3918;42.564;23.164;2023-09-30T14:38:24;-11650.84;;;-142.29;45.65
7748;BME280;3918;42.564;23.164;2023-09-30T14:40:53;-11650.84;;;-142.29;45.27
7748;BME280;3918;42.564;23.164;2023-09-30T14:43:20;-11650.84;;;-142.29;45.99
7748;BME280;3918;42.564;23.164;2023-09-30T14:45:47;-11650.84;;;-142.29;45.95
7748;BME280;3918;42.564;23.164;2023-09-30T14:48:13;-11650.84;;;-142.29;45.84
7748;BME280;3918;42.564;23.164;2023-09-30T14:50:48;-11650.84;;;-142.29;45.26
7748;BME280;3918;42.564;23.164;2023-09-30T14:53:15;-11650.84;;;-142.29;45.76
7748;BME280;3918;42.564;23.164;2023-09-30T14:55:42;-11650.84;;;-142.29;45.60
7748;BME280;3918;42.564;23.164;2023-09-30T14:58:10;-11650.84;;;-142.29;45.72
7748;BME280;3918;42.564;23.164;2023-09-30T15:00:37;-11650.84;;;-142.29;45.78
7748;BME280;3918;42.564;23.164;2023-09-30T15:03:04;-11650.84;;;-142.29;45.77
7748;BME280;3918;42.564;23.164;2023-09-30T15:05:31;-11650.84;;;-142.29;46.01
7748;BME280;3918;42.564;23.164;2023-09-30T15:07:58;-11650.84;;;-142.29;46.63
7748;BME280;3918;42.564;23.164;2023-09-30T15:10:26;-11650.84;;;-142.29;46.89
7748;BME280;3918;42.564;23.164;2023-09-30T15:12:53;-11650.84;;;-142.29;46.49
7748;BME280;3918;42.564;23.164;2023-09-30T15:15:21;-11650.84;;;-142.29;46.50
7748;BME280;3918;42.564;23.164;2023-09-30T15:17:48;-11650.84;;;-142.29;47.03
7748;BME280;3918;42.564;23.164;2023-09-30T15:20:15;-11650.84;;;-142.29;47.20
7748;BME280;3918;42.564;23.164;2023-09-30T15:22:42;-11650.84;;;-142.29;47.30
7748;BME280;3918;42.564;23.164;2023-09-30T15:25:09;-11650.84;;;-142.29;47.46
7748;BME280;3918;42.564;23.164;2023-09-30T15:27:36;-11650.84;;;-142.29;47.29
7748;BME280;3918;42.564;23.164;2023-09-30T15:30:03;-11650.84;;;-142.29;47.30
7748;BME280;3918;42.564;23.164;2023-09-30T15:32:33;-11650.84;;;-142.29;47.94
7748;BME280;3918;42.564;23.164;2023-09-30T15:35:00;-11650.84;;;-142.29;48.02
7748;BME280;3918;42.564;23.164;2023-09-30T15:37:27;-11650.84;;;-142.29;48.39
7748;BME280;3918;42.564;23.164;2023-09-30T15:39:53;-11650.84;;;-142.29;48.56
7748;BME280;3918;42.564;23.164;2023-09-30T15:42:20;-11650.84;;;-142.29;48.56
7748;BME280;3918;42.564;23.164;2023-09-30T15:44:47;-11650.84;;;-142.29;48.53
7748;BME280;3918;42.564;23.164;2023-09-30T15:47:14;-11650.84;;;-142.29;49.12
7748;BME280;3918;42.564;23.164;2023-09-30T15:49:42;-11650.84;;;-142.29;49.26
7748;BME280;3918;42.564;23.164;2023-09-30T15:52:08;-11650.84;;;-142.29;49.04
7748;BME280;3918;42.564;23.164;2023-09-30T15:54:35;-11650.84;;;-142.29;49.09
7748;BME280;3918;42.564;23.164;2023-09-30T15:57:02;-11650.84;;;-142.29;49.24
7748;BME280;3918;42.564;23.164;2023-09-30T15:59:29;-11650.84;;;-142.29;49.53
7748;BME280;3918;42.564;23.164;2023-09-30T16:01:56;-11650.84;;;-142.29;49.82
7748;BME280;3918;42.564;23.164;2023-09-30T16:04:23;-11650.84;;;-142.29;50.04
7748;BME280;3918;42.564;23.164;2023-09-30T16:06:51;-11650.84;;;-142.29;50.41
7748;BME280;3918;42.564;23.164;2023-09-30T16:09:18;-11650.84;;;-142.29;50.45
7748;BME280;3918;42.564;23.164;2023-09-30T16:11:45;-11650.84;;;-142.29;50.42
7748;BME280;3918;42.564;23.164;2023-09-30T16:14:13;-11650.84;;;-142.29;50.52
7748;BME280;3918;42.564;23.164;2023-09-30T16:16:40;-11650.84;;;-142.29;50.73
7748;BME280;3918;42.564;23.164;2023-09-30T16:19:06;-11650.84;;;-142.29;50.61
7748;BME280;3918;42.564;23.164;2023-09-30T16:21:34;-11650.84;;;-142.29;51.05
7748;BME280;3918;42.564;23.164;2023-09-30T16:24:02;-11650.84;;;-142.29;50.97
7748;BME280;3918;42.564;23.164;2023-09-30T16:26:29;-11650.84;;;-142.29;51.50
7748;BME280;3918;42.564;23.164;2023-09-30T16:28:56;-11650.84;;;-142.29;51.63
7748;BME280;3918;42.564;23.164;2023-09-30T16:31:24;-11650.84;;;-142.29;51.89
7748;BME280;3918;42.564;23.164;2023-09-30T16:33:50;-11650.84;;;-142.29;52.31
7748;BME280;3918;42.564;23.164;2023-09-30T16:36:17;-11650.84;;;-142.29;52.77
7748;BME280;3918;42.564;23.164;2023-09-30T16:38:44;-11650.84;;;-142.29;52.91
7748;BME280;3918;42.564;23.164;2023-09-30T16:41:14;-11650.84;;;-142.29;53.30
7748;BME280;3918;42.564;23.164;2023-09-30T16:43:41;-11650.84;;;-142.29;53.60
7748;BME280;3918;42.564;23.164;2023-09-30T16:46:08;-11650.84;;;-142.29;53.83